x

Neah Bay, - 6nm North Of Cape Flattery, Wa (traffic Separation Lighted Buoy) (46087) Wave Buoy

8:20am - Tue 31st May 2016 All times are PDT. -7 hours from GMT.

  • Sig Wave height 2.6ft
  • Swell Direction
  • Peak Period 11s
  • Average Period 7s
  • Wind
    9mph
  • Sea Temp 52°f
  • 空気 Temp 53°f
  • Sea Pressure 1019.6mb
  • Neah Bay, - 6nm North Of Cape Flattery, Wa     (traffic Separation Lighted Buoy)
  • Neah Bay, - 6nm North Of Cape Flattery, Wa     (traffic Separation Lighted Buoy)

More Historic Weather Station data

Upgrade to MSW Pro to gain access to the past 30 days of data for over 8000 Wavebouys and Weather Stations around the globe.

Join Pro

Comparision Forecast

View Surf forecast
   
Tue 05/31 8:20am 2.5ft 11s 7s 9
mph
1019.6mb 52f 53f
7:50am 2.5ft 16s 7s 9 11 mph 1019.8mb 52f 53f
7:20am 2.5ft 12s 7s 9
mph
1020.1mb 52f 52f
6:50am 3ft 12s 7s 7 9 mph 1020.3mb 52f 52f
6:20am 2.5ft 12s 7s 9 11 mph 1019.9mb 53f 52f
5:50am 2.5ft 11s 7s 11 13 mph 1020.1mb 52f 52f
5:20am 2.5ft 11s 7s 13 18 mph 1020mb 52f 54f
4:50am 2.5ft 12s  -  11 13 mph 1020.3mb 52f 53f
4:20am 2.5ft 12s  -  2 4 mph 1020.6mb 52f 52f
3:50am 2.5ft 12s 7s 2
mph
1020.8mb 52f 52f
3:20am 2.5ft 12s 7s  -  2 mph 1021.2mb 52f 52f
2:50am 2.5ft 13s 6s 2
mph
1021.4mb 52f 52f
2:20am 2.5ft 11s 6s 2
mph
1021.5mb 52f 52f
1:50am 2.5ft 11s 6s  -  2 mph 1021.6mb 52f 52f
1:20am 2.5ft 11s 6s 2
mph
1021.9mb 53f 52f
12:50am 3ft 12s 6s 2
mph
1021.9mb 53f 52f
12:20am 2.5ft 11s 6s 2 4 mph 1021.8mb 53f 53f
Mon 05/30 11:50pm 2.5ft 11s 6s 2 4 mph 1022.2mb 53f 53f
11:20pm 3ft 11s 5s 9 11 mph 1022.6mb 53f 53f
10:50pm 2.5ft 11s 5s 7 9 mph 1022.8mb 53f 53f
10:20pm 2.5ft 11s 5s 7
mph
1022.9mb 52f 53f
9:50pm 2.5ft 12s 5s 4 7 mph 1023mb 52f 53f
9:20pm 3ft 11s 5s 7
mph
1023mb 53f 53f
8:50pm 3ft 11s 5s 9 11 mph 1023.3mb 53f 53f
8:20pm 3ft 12s 5s 7 9 mph 1023.3mb 53f 54f
7:50pm 3ft 11s 5s 4 7 mph 1023.5mb 53f 54f
7:20pm 3ft 11s 5s 9 11 mph 1023.7mb 53f 54f
6:50pm 3ft 11s 5s 11 13 mph 1023.8mb 53f 54f
6:20pm 2.5ft 11s 6s 13 16 mph 1023.8mb 53f 54f
5:50pm 3ft 11s 6s 9 11 mph 1024.2mb 53f 54f
5:20pm 2.5ft 13s 6s 9 11 mph 1024.5mb 53f 54f
4:50pm 2.5ft 11s 6s 9 11 mph 1024.8mb 53f 54f
4:20pm 3ft 7s 6s 9
mph
1025.1mb 53f 54f
3:50pm 2.5ft 11s 6s 9
mph
1025.4mb 53f 54f
3:20pm 2.5ft 11s 6s 9
mph
1025.6mb 53f 53f
2:50pm 2.5ft 12s 6s 9 11 mph 1025.8mb 53f 53f
2:20pm 3.5ft 11s 6s 11 13 mph 1025.8mb 53f 53f
1:50pm 3ft 11s 6s 9 11 mph 1025.9mb 53f 52f
1:20pm 2.5ft 11s 6s 7 9 mph 1026mb 53f 53f
12:50pm 3ft 11s 6s 7 9 mph 1026.2mb 54f 53f
12:20pm 3ft 7s 6s 2 4 mph 1026.4mb 53f 53f
11:50am 3.5ft 11s 6s 2 4 mph 1026.4mb 53f 53f
11:20am 3ft 5s 6s 2
mph
1026.4mb 53f 53f
10:50am 3ft 11s 6s 2
mph
1026.3mb 53f 52f
10:20am 3.5ft 7s 6s  -  2 mph 1026.4mb 52f 52f
9:50am 3.5ft 7s 6s 2
mph
1026.4mb 52f 51f
9:20am 3.5ft 7s 6s 4 7 mph 1026.3mb 52f 51f
8:50am 3.5ft 7s 6s 7 9 mph 1026.2mb 51f 50f
8:20am 3.5ft 7s 6s 9
mph
1026.1mb 51f 50f
7:50am 3.5ft 7s 6s 11
mph
1026mb 51f 49f
7:20am 3.5ft 7s 6s 11 13 mph 1026.1mb 51f 49f
6:50am 3.5ft 6s 6s 11 13 mph 1025.9mb 51f 49f
6:20am 3.5ft 7s 6s 9 11 mph 1025.8mb 52f 49f
5:50am 3.5ft 6s 6s 9 11 mph 1025.6mb 52f 49f
5:20am 3.5ft 7s 6s 11 13 mph 1025.6mb 52f 49f
4:50am 3.5ft 8s 6s 9 11 mph 1025.5mb 52f 50f
4:20am 3.5ft 6s 6s 9
mph
1025.5mb 52f 50f
3:50am 3.5ft 7s 6s 4 9 mph 1025.6mb 52f 51f
3:20am 3.5ft 7s 6s 2 4 mph 1025.5mb 52f 52f
2:50am 3.5ft 7s 6s  -  2 mph 1025.4mb 52f 51f
2:20am 3.5ft 7s 6s 2 4 mph 1025.3mb 52f 52f
1:50am 3.5ft 8s 6s 4
mph
1025.1mb 52f 52f
1:20am 3.5ft 8s 6s 4 7 mph 1025.1mb 52f 52f
12:50am 4ft 8s 6s 7 9 mph 1025mb 52f 52f
12:20am 4ft 8s 6s 7 9 mph 1024.7mb 52f 53f
Sun 05/29 11:50pm 4.5ft 7s 6s 7 9 mph 1024.6mb 52f 52f
11:20pm 4ft 7s 6s 9
mph
1024.6mb 52f 53f
10:50pm 3.5ft 7s 6s 9 11 mph 1024.5mb 52f 53f
10:20pm 3.5ft 7s 5s 9 11 mph 1024.3mb 52f 53f
9:50pm 3.5ft 8s 5s 11 13 mph 1024.1mb 52f 53f
9:20pm 3.5ft 6s 5s 11
mph
1023.7mb 52f 53f
8:50pm 3.5ft 6s 5s 11
mph
1023.6mb 53f 53f
8:20pm 3.5ft 6s 5s 11 13 mph 1023.4mb 53f 53f
7:50pm 3.5ft 7s 5s 11 13 mph 1023.2mb 53f 53f
7:20pm 3ft 6s 5s 13 16 mph 1023.1mb 53f 54f
6:50pm 3.5ft 6s 5s 11 13 mph 1023.1mb 53f 54f
6:20pm 3.5ft 6s 5s 11 13 mph 1023mb 53f 54f
5:50pm 3.5ft 6s 5s 9 11 mph 1023.1mb 53f 54f
5:20pm 3ft 6s 5s 9 11 mph 1023.1mb 53f 53f
4:50pm 3.5ft 6s 6s 7 9 mph 1023mb 53f 53f
4:20pm 3ft 7s 6s 9
mph
1022.9mb 53f 53f
3:50pm 2.5ft 6s 6s 7 9 mph 1023mb 53f 53f
3:20pm 3ft 14s 6s 9
mph
1022.9mb 53f 53f
2:50pm 2.5ft 7s 6s 9
mph
1022.7mb 53f 53f
2:20pm 3ft 7s 6s 9
mph
1022.7mb 53f 53f
1:50pm 2.5ft 7s 6s 7 9 mph 1022.5mb 53f 53f
1:20pm 3ft 6s 6s 9 11 mph 1022.3mb 53f 53f
12:50pm 3ft 7s 6s 9
mph
1022mb 53f 53f
12:20pm 3ft 7s 6s 9 11 mph 1021.6mb 53f 53f
11:50am 3ft 6s 6s 7
mph
1021.4mb 52f 52f
11:20am 3.5ft 6s 6s 4 7 mph 1021.1mb 52f 52f
10:50am 3.5ft 7s 6s 4
mph
1020.8mb 52f 52f
10:20am 3ft 7s 6s 4
mph
1020.7mb 51f 52f
9:50am 3.5ft 7s 6s 4
mph
1020.4mb 51f 52f
9:20am 3.5ft 6s  -  4
mph
1020.2mb 51f 52f
8:50am 3ft 6s 5s 2 4 mph 1019.9mb 51f 52f
8:20am 3.5ft 6s 6s 4
mph
1019.5mb 51f 52f
7:50am 3ft 6s 5s 2 4 mph 1019.3mb 51f 52f
7:20am 3.5ft 6s 6s 7
mph
1019mb 51f 51f
6:50am 3.5ft 6s 6s 7
mph
1018.8mb 51f 51f
6:20am 3ft 7s 6s 4 7 mph 1018.6mb 51f 51f
5:50am 3ft 6s 6s 7
mph
1018.4mb 51f 51f
5:20am 2.5ft 6s 6s 4
mph
1018.2mb 51f 51f
4:50am 2.5ft 6s 6s 4 7 mph 1018.1mb 51f 51f
4:20am 2.5ft 7s 6s 4 7 mph 1017.8mb 51f 51f
3:50am 2.5ft 6s 6s 7
mph
1017.8mb 51f 52f
3:20am 2.5ft 7s 6s 9
mph
1017.6mb 51f 52f
2:50am 3ft 6s 6s 7 9 mph 1017.5mb 51f 52f
2:20am 2.5ft 7s 6s 7
mph
1017.5mb 51f 52f
1:50am 2.5ft 6s 6s 7
mph
1017.5mb 51f 52f
1:20am 3ft 7s 6s 7
mph
1017.3mb 51f 52f
12:50am 3ft 6s 6s 4 7 mph 1017.3mb 51f 52f
12:20am 3ft 7s 5s 4 7 mph 1017.2mb 51f 52f
Sat 05/28 11:50pm 3ft 6s 5s 7
mph
1017.1mb 51f 52f
11:20pm 3ft 7s 6s 7
mph
1017mb 51f 52f
10:50pm 3.5ft 6s 6s 7 9 mph 1016.8mb 51f 52f
10:20pm 3.5ft 7s 6s 7 9 mph 1016.6mb 51f 52f
9:50pm 3.5ft 6s 6s 9
mph
1016.3mb 51f 52f
9:20pm 3.5ft 7s 6s 7
mph
1016.1mb 51f 52f
8:50pm 4ft 6s 6s 7
mph
1015.8mb 51f 52f
8:20pm 4.5ft 6s 6s 7
mph
1015.8mb 51f 52f
7:50pm 4.5ft 6s 6s 7
mph
1015.5mb 51f 52f
7:20pm 4.5ft 6s 6s 7 9 mph 1015.3mb 51f 52f
6:50pm 4.5ft 6s 6s 7
mph
1015.1mb 51f 52f
6:20pm 4.5ft 6s 6s 7
mph
1015mb 51f 52f
5:50pm 5ft 7s 6s 7
mph
1014.9mb 51f 52f
5:20pm 4.5ft 7s 6s 4 7 mph 1015mb 51f 52f
4:50pm 4.5ft 7s 6s 4 7 mph 1015.1mb 51f 52f
4:20pm 4.5ft 7s 6s 4
mph
1015.1mb 51f 52f
3:50pm 4.5ft 7s 6s 4
mph
1015.1mb 51f 52f
3:20pm 4.5ft 7s 6s 7
mph
1015.1mb 51f 52f
2:50pm 4.5ft 7s 6s 9 11 mph 1015mb 51f 52f
2:20pm 4.5ft 7s 6s 9 11 mph 1014.8mb 51f 52f
1:50pm 4.5ft 7s 6s 9 11 mph 1014.6mb 51f 52f
1:20pm 4ft 7s 5s 11 13 mph 1014.3mb 51f 52f
12:50pm 5ft 7s 6s 9 11 mph 1014.3mb 51f 52f
12:20pm 5ft 7s 6s 11
mph
1014.1mb 51f 52f
11:50am 5.5ft 7s 6s 11 13 mph 1014.1mb 51f 52f
11:20am 5ft 7s 5s 20 25 mph 1013.7mb 51f 52f
10:50am 5.5ft 6s 5s 18 22 mph 1013.7mb 51f 52f
10:20am 5.5ft 6s 5s 18 22 mph 1013.7mb 51f 52f
9:50am 5ft 6s 5s 18 22 mph 1013.8mb 51f 52f
9:20am 5ft 6s 5s 18 20 mph 1014mb 51f 52f
8:50am 4.5ft 5s 5s 18 22 mph 1014mb 51f 52f
8:20am 4.5ft 5s 5s 18 22 mph 1014mb 51f 52f
7:50am 4ft 5s 4s 20 25 mph 1014mb 51f 52f
7:20am 3.5ft 5s 4s 18 20 mph 1014.2mb 51f 52f
6:50am 3.5ft 6s 4s 11 13 mph 1014.8mb 51f 50f
6:20am 3.5ft 6s 4s 16 18 mph 1014.8mb 51f 50f
5:50am 3ft 8s 4s 18 20 mph 1014.9mb 51f 50f
5:20am 3ft 7s 5s 16 20 mph 1015.2mb 51f 49f
4:50am 2.5ft 8s 5s 18 22 mph 1015.4mb 52f 49f
4:20am 2.5ft 8s 6s 16 18 mph 1015.6mb 52f 49f
3:50am 2.5ft 7s 6s 16 18 mph 1015.9mb 52f 49f
3:20am 3ft 8s 6s 16 18 mph 1016.4mb 52f 50f
2:50am 2.5ft 7s 6s 16 18 mph 1017mb 52f 49f
2:20am 3ft 7s 7s 13 16 mph 1017.5mb 52f 49f
1:50am 3.5ft 7s 6s 13 16 mph 1017.9mb 52f 49f
1:20am 3.5ft 7s 6s 11
mph
1018.5mb 52f 49f
12:50am 3ft 8s 6s 7 9 mph 1019mb 52f 50f
12:20am 3.5ft 7s 6s 4 7 mph 1019.3mb 52f 50f
Fri 05/27 11:50pm 3ft 7s 6s 7
mph
1019.4mb 52f 50f
11:20pm 3.5ft 7s 6s 7
mph
1019.6mb 52f 50f
10:50pm 3.5ft 7s 6s 4 7 mph 1019.9mb 52f 50f
10:20pm 3.5ft 8s 6s 2
mph
1020.1mb 52f 50f
9:50pm 3.5ft 7s 5s 2 4 mph 1020.1mb 52f 50f
9:20pm 3.5ft 6s 5s 7
mph
1020mb 52f 50f
8:50pm 3.5ft 7s 5s 7 9 mph 1020.2mb 52f 50f
8:20pm 4ft 6s 5s 9
mph
1020.3mb 52f 51f
7:50pm 4ft 6s 5s 9 11 mph 1020.3mb 52f 51f
7:20pm 3.5ft 6s 5s 11 13 mph 1020.4mb 52f 51f
6:50pm 4ft 7s 5s 11 13 mph 1020.5mb 53f 52f
6:20pm 4.5ft 7s 5s 11
mph
1020.6mb 53f 52f
5:50pm 4.5ft 7s 5s 11
mph
1020.8mb 53f 52f
5:20pm 4.5ft 7s 6s 11
mph
1020.8mb 53f 52f
4:50pm 5ft 7s 6s 11 13 mph 1020.9mb 53f 52f